createdAt,value
2018-01-05T00:00:03.930Z,95214.34
2018-01-05T00:02:33.062Z,95217.45
2018-01-05T00:04:58.932Z,95221.77
2018-01-05T00:07:28.334Z,95203.86
2018-01-05T00:09:54.192Z,95207.40
2018-01-05T00:12:21.751Z,95214.16
2018-01-05T00:14:47.614Z,95212.52
2018-01-05T00:17:17.201Z,95212.55
2018-01-05T00:19:43.052Z,95220.40
2018-01-05T00:22:10.817Z,95219.38
2018-01-05T00:24:36.674Z,95209.09
2018-01-05T00:27:05.298Z,95210.45
2018-01-05T00:29:31.204Z,95205.41
2018-01-05T00:34:27.990Z,95225.75
2018-01-05T00:36:54.979Z,95224.20
2018-01-05T00:39:20.829Z,95229.45
2018-01-05T00:41:46.679Z,95227.98
2018-01-05T00:44:12.551Z,95233.38
2018-01-05T00:46:38.364Z,95231.09
2018-01-05T00:49:08.131Z,95237.27
2018-01-05T00:51:34.016Z,95235.06
2018-01-05T00:54:03.102Z,95235.87
2018-01-05T00:56:28.961Z,95242.69
2018-01-05T00:58:57.970Z,95248.14
2018-01-05T01:01:23.872Z,95247.43
2018-01-05T01:03:51.639Z,95248.59
2018-01-05T01:06:17.538Z,95262.31
2018-01-05T01:08:46.940Z,95261.59
2018-01-05T01:11:12.818Z,95266.94
2018-01-05T01:13:58.620Z,95265.91
2018-01-05T01:16:24.472Z,95266.64
2018-01-05T01:18:50.304Z,95262.55
2018-01-05T01:21:16.180Z,95271.19
2018-01-05T01:23:42.029Z,95290.11
2018-01-05T01:26:07.842Z,95301.58
2018-01-05T01:28:33.675Z,95302.53
2018-01-05T01:30:59.497Z,95306.42
2018-01-05T01:33:25.344Z,95314.77
2018-01-05T01:35:51.212Z,95318.72
2018-01-05T01:38:17.101Z,95327.63
2018-01-05T01:40:42.953Z,95323.48
2018-01-05T01:43:08.842Z,95306.05
2018-01-05T01:45:34.694Z,95309.44
2018-01-05T01:48:00.548Z,95304.59
2018-01-05T01:50:26.430Z,95322.45
2018-01-05T01:52:52.237Z,95325.20
2018-01-05T01:55:18.057Z,95323.80
2018-01-05T01:57:43.926Z,95334.41
2018-01-05T02:00:09.826Z,95333.64
2018-01-05T02:02:37.407Z,95328.78
2018-01-05T02:05:03.230Z,95328.23
2018-01-05T02:07:31.827Z,95314.16
2018-01-05T02:09:57.707Z,95318.20
2018-01-05T02:15:05.234Z,95320.42
2018-01-05T02:17:31.111Z,95333.76
2018-01-05T02:19:56.954Z,95324.41
2018-01-05T02:22:22.829Z,95318.91
2018-01-05T02:24:48.646Z,95325.44
2018-01-05T02:27:14.554Z,95330.70
2018-01-05T02:29:40.436Z,95318.50
2018-01-05T02:32:06.270Z,95312.20
2018-01-05T02:34:32.126Z,95306.13
2018-01-05T02:36:58.093Z,95300.27
2018-01-05T02:39:23.974Z,95313.67
2018-01-05T02:41:49.826Z,95320.22
2018-01-05T02:44:18.688Z,95320.63
2018-01-05T02:46:44.580Z,95318.95
2018-01-05T02:49:12.416Z,95305.37
2018-01-05T02:51:38.315Z,95302.95
2018-01-05T02:54:07.725Z,95285.83
2018-01-05T02:56:33.588Z,95277.64
2018-01-05T02:59:01.479Z,95269.22
2018-01-05T03:01:27.361Z,95263.92
2018-01-05T03:03:56.993Z,95280.23
2018-01-05T03:06:22.916Z,95257.70
2018-01-05T03:08:48.739Z,95266.41
2018-01-05T03:11:14.599Z,95263.59
2018-01-05T03:13:40.458Z,95248.16
2018-01-05T03:16:09.383Z,95263.30
2018-01-05T03:18:35.226Z,95267.64
2018-01-05T03:21:02.594Z,95275.74
2018-01-05T03:23:28.457Z,95280.56
2018-01-05T03:25:57.410Z,95284.55
2018-01-05T03:28:23.228Z,95282.86
2018-01-05T03:30:51.887Z,95285.94
2018-01-05T03:33:17.759Z,95278.20
2018-01-05T03:38:14.535Z,95279.02
2018-01-05T03:40:44.021Z,95288.28
2018-01-05T03:43:09.873Z,95285.86
2018-01-05T03:45:35.736Z,95284.92
2018-01-05T03:48:01.592Z,95264.52
2018-01-05T03:50:27.507Z,95251.92
2018-01-05T03:52:53.294Z,95209.73
2018-01-05T03:55:19.148Z,95237.86
2018-01-05T03:57:47.818Z,95239.34
2018-01-05T04:00:13.647Z,95250.12
2018-01-05T04:02:55.151Z,95248.30
2018-01-05T04:05:20.981Z,95256.54
2018-01-05T04:07:46.876Z,95250.45
2018-01-05T04:10:12.700Z,95247.80
2018-01-05T04:12:38.552Z,95249.67
2018-01-05T04:15:04.380Z,95260.89
2018-01-05T04:17:30.258Z,95264.52
2018-01-05T04:19:56.070Z,95268.59
2018-01-05T04:22:21.940Z,95267.79
2018-01-05T04:24:58.134Z,95270.69
2018-01-05T04:27:24.018Z,95275.89
2018-01-05T04:29:49.869Z,95270.01
2018-01-05T04:32:15.723Z,95260.63
2018-01-05T04:34:41.568Z,95252.44
2018-01-05T04:37:07.429Z,95252.78
2018-01-05T04:39:33.314Z,95243.02
2018-01-05T04:41:59.186Z,95240.78
2018-01-05T04:44:25.030Z,95243.36
2018-01-05T04:46:52.402Z,95234.06
2018-01-05T04:49:18.275Z,95233.38
2018-01-05T04:51:44.142Z,95234.30
2018-01-05T04:54:13.825Z,95229.48
2018-01-05T04:56:39.656Z,95224.33
2018-01-05T04:59:05.544Z,95216.15
2018-01-05T05:01:31.483Z,95216.16
2018-01-05T05:03:57.363Z,95195.71
2018-01-05T05:06:23.970Z,95197.00
2018-01-05T05:08:58.039Z,95189.74
2018-01-05T05:11:23.910Z,95179.75
2018-01-05T05:13:49.753Z,95186.50
2018-01-05T05:16:15.648Z,95190.41
2018-01-05T05:18:41.529Z,95175.70
2018-01-05T05:21:08.366Z,95180.47
2018-01-05T05:23:34.232Z,95177.27
2018-01-05T05:26:02.874Z,95178.98
2018-01-05T05:28:28.716Z,95169.75
2018-01-05T05:31:08.122Z,95166.85
2018-01-05T05:33:33.974Z,95164.23
2018-01-05T05:35:59.873Z,95169.51
2018-01-05T05:38:25.733Z,95162.48
2018-01-05T05:40:51.613Z,95152.84
2018-01-05T05:43:17.429Z,95153.25
2018-01-05T05:45:43.294Z,95147.89
2018-01-05T05:48:09.158Z,95150.84
2018-01-05T05:50:35.006Z,95154.20
2018-01-05T05:53:16.444Z,95152.66
2018-01-05T05:55:42.309Z,95154.20
2018-01-05T05:58:08.180Z,95153.51
2018-01-05T06:00:34.049Z,95159.70
2018-01-05T06:02:59.877Z,95148.89
2018-01-05T06:05:25.735Z,95161.77
2018-01-05T06:07:51.561Z,95158.12
2018-01-05T06:10:17.528Z,95160.41
2018-01-05T06:12:43.421Z,95161.53
2018-01-05T06:15:10.112Z,95162.82
2018-01-05T06:17:35.970Z,95152.87
2018-01-05T06:20:01.861Z,95154.17
2018-01-05T06:22:27.758Z,95145.52
2018-01-05T06:24:53.630Z,95136.80
2018-01-05T06:27:19.478Z,95143.00
2018-01-05T06:29:45.358Z,95137.51
2018-01-05T06:32:11.198Z,95137.05
2018-01-05T06:34:38.765Z,95135.72
2018-01-05T06:37:04.710Z,95136.34
2018-01-05T06:39:33.478Z,95127.17
2018-01-05T06:41:59.336Z,95090.81
2018-01-05T06:44:28.479Z,95117.97
2018-01-05T06:46:54.385Z,95108.75
2018-01-05T06:49:20.219Z,95101.64
2018-01-05T06:51:46.076Z,95113.08
2018-01-05T06:54:11.920Z,95105.86
2018-01-05T06:56:41.616Z,95102.64
2018-01-05T06:59:11.312Z,95114.47
2018-01-05T07:01:37.150Z,95107.19
2018-01-05T07:04:02.986Z,95104.52
2018-01-05T07:06:29.850Z,95118.14
2018-01-05T07:08:55.708Z,95117.50
2018-01-05T07:11:24.897Z,95118.44
2018-01-05T07:13:50.770Z,95123.83
2018-01-05T07:16:20.457Z,95124.02
2018-01-05T07:18:46.318Z,95133.97
2018-01-05T07:21:13.808Z,95127.30
2018-01-05T07:23:39.618Z,95125.72
2018-01-05T07:26:05.483Z,95117.91
2018-01-05T07:28:31.321Z,95106.59
2018-01-05T07:30:57.179Z,95106.70
2018-01-05T07:33:25.002Z,95116.52
2018-01-05T07:35:50.817Z,95119.01
2018-01-05T07:38:19.464Z,95117.88
2018-01-05T07:40:45.279Z,95118.80
2018-01-05T07:43:17.333Z,95105.67
2018-01-05T07:45:43.269Z,95113.92
2018-01-05T07:48:09.188Z,95116.91
2018-01-05T07:50:35.054Z,95130.56
2018-01-05T07:55:31.736Z,95124.67
2018-01-05T07:57:58.646Z,95130.47
2018-01-05T08:00:24.512Z,95143.01
2018-01-05T08:02:50.367Z,95140.66
2018-01-05T08:05:22.466Z,95127.09
2018-01-05T08:07:48.371Z,95148.27
2018-01-05T08:10:14.228Z,95146.64
2018-01-05T08:12:40.074Z,95144.06
2018-01-05T08:15:05.902Z,95139.45
2018-01-05T08:17:31.791Z,95141.20
2018-01-05T08:20:01.588Z,95151.58
2018-01-05T08:22:27.428Z,95135.78
2018-01-05T08:24:55.126Z,95143.79
2018-01-05T08:27:23.012Z,95148.45
2018-01-05T08:29:49.578Z,95146.23
2018-01-05T08:32:15.437Z,95149.35
2018-01-05T08:34:44.238Z,95148.97
2018-01-05T08:37:10.088Z,95141.04
2018-01-05T08:39:35.968Z,95148.67
2018-01-05T08:42:01.830Z,95151.86
2018-01-05T08:44:27.709Z,95151.68
2018-01-05T08:46:57.616Z,95139.86
2018-01-05T08:49:24.815Z,95148.72
2018-01-05T08:51:50.676Z,95141.14
2018-01-05T08:54:16.565Z,95146.03
2018-01-05T08:56:45.443Z,95152.38
2018-01-05T08:59:11.628Z,95146.78
2018-01-05T09:01:41.138Z,95138.25
2018-01-05T09:04:06.997Z,95144.68
2018-01-05T09:06:35.694Z,95147.65
2018-01-05T09:09:03.000Z,95156.33
2018-01-05T09:11:30.103Z,95160.34
2018-01-05T09:13:58.720Z,95159.23
2018-01-05T09:16:24.619Z,95171.58
2018-01-05T09:18:50.524Z,95177.98
2018-01-05T09:21:16.353Z,95171.28
2018-01-05T09:23:42.320Z,95174.34
2018-01-05T09:26:08.146Z,95179.13
2018-01-05T09:28:37.407Z,95176.63
2018-01-05T09:31:03.339Z,95180.76
2018-01-05T09:33:30.808Z,95177.95
2018-01-05T09:35:56.674Z,95178.08
2018-01-05T09:38:26.155Z,95177.44
2018-01-05T09:40:52.012Z,95178.41
2018-01-05T09:43:21.279Z,95179.51
2018-01-05T09:45:47.208Z,95181.03
2018-01-05T09:48:14.825Z,95196.23
2018-01-05T09:50:51.510Z,95182.19
2018-01-05T09:53:17.864Z,95178.77
2018-01-05T09:55:43.754Z,95181.25
2018-01-05T09:58:09.561Z,95192.98
2018-01-05T10:00:35.453Z,95170.58
2018-01-05T10:03:01.308Z,95163.15
2018-01-05T10:05:27.139Z,95176.34
2018-01-05T10:07:52.997Z,95148.13
2018-01-05T10:10:18.822Z,95154.69
2018-01-05T10:12:59.990Z,95146.78
2018-01-05T10:15:25.885Z,95147.89
2018-01-05T10:17:51.824Z,95138.44
2018-01-05T10:20:17.851Z,95135.67
2018-01-05T10:22:43.827Z,95136.31
2018-01-05T10:25:09.873Z,95132.59
2018-01-05T10:27:35.892Z,95122.59
2018-01-05T10:30:01.750Z,95119.78
2018-01-05T10:32:30.548Z,95123.74
2018-01-05T10:34:56.523Z,95128.41
2018-01-05T10:37:22.377Z,95111.36
2018-01-05T10:39:48.190Z,95113.08
2018-01-05T10:42:14.088Z,95107.81
2018-01-05T10:44:39.994Z,95111.94
2018-01-05T10:47:05.969Z,95108.16
2018-01-05T10:49:31.839Z,95098.59
2018-01-05T10:51:57.690Z,95098.43
2018-01-05T10:54:23.516Z,95085.70
2018-01-05T10:56:53.213Z,95078.78
2018-01-05T10:59:19.056Z,95060.11
2018-01-05T11:01:45.364Z,95074.59
2018-01-05T11:04:11.244Z,95058.62
2018-01-05T11:06:37.074Z,95077.74
2018-01-05T11:09:02.946Z,95075.72
2018-01-05T11:11:28.826Z,95084.55
2018-01-05T11:13:58.179Z,95079.47
2018-01-05T11:16:24.064Z,95064.06
2018-01-05T11:18:51.768Z,95069.74
2018-01-05T11:21:17.663Z,95060.34
2018-01-05T11:23:47.097Z,95058.11
2018-01-05T11:26:12.957Z,95060.30
2018-01-05T11:28:42.164Z,95062.36
2018-01-05T11:31:08.018Z,95067.56
2018-01-05T11:33:37.111Z,95061.10
2018-01-05T11:36:02.967Z,95065.22
2018-01-05T11:38:32.125Z,95074.67
2018-01-05T11:40:57.964Z,95071.73
2018-01-05T11:43:23.800Z,95066.39
2018-01-05T11:45:49.664Z,95070.97
2018-01-05T11:48:15.569Z,95040.08
2018-01-05T11:50:42.264Z,95060.21
2018-01-05T11:53:08.136Z,95053.64
2018-01-05T11:55:37.337Z,95050.34
2018-01-05T11:58:03.223Z,95045.00
2018-01-05T12:00:32.996Z,95052.01
2018-01-05T12:02:58.837Z,95050.20
2018-01-05T12:05:28.327Z,95047.68
2018-01-05T12:07:54.184Z,95048.78
2018-01-05T12:10:21.256Z,95046.52
2018-01-05T12:12:47.164Z,95042.60
2018-01-05T12:15:16.603Z,95044.92
2018-01-05T12:17:42.492Z,95038.44
2018-01-05T12:20:08.391Z,95033.77
2018-01-05T12:22:34.267Z,95032.73
2018-01-05T12:25:00.117Z,95023.06
2018-01-05T12:27:29.060Z,95016.55
2018-01-05T12:29:54.901Z,95014.52
2018-01-05T12:32:22.603Z,95023.80
2018-01-05T12:34:48.476Z,95021.16
2018-01-05T12:37:18.241Z,95019.34
2018-01-05T12:39:44.110Z,95019.48
2018-01-05T12:42:11.644Z,95023.32
2018-01-05T12:44:37.454Z,95028.33
2018-01-05T12:49:34.257Z,95017.52
2018-01-05T12:52:01.278Z,95017.33
2018-01-05T12:54:27.135Z,95020.69
2018-01-05T12:56:53.002Z,95019.56
2018-01-05T12:59:18.871Z,95019.85
2018-01-05T13:01:44.771Z,95013.22
2018-01-05T13:04:14.310Z,94806.02
2018-01-05T13:06:40.210Z,95013.34
2018-01-05T13:09:07.729Z,95010.65
2018-01-05T13:11:33.564Z,95001.61
2018-01-05T13:14:03.024Z,95014.97
2018-01-05T13:16:28.867Z,95014.50
2018-01-05T13:18:57.958Z,95014.30
2018-01-05T13:21:23.829Z,95011.70
2018-01-05T13:23:51.677Z,95015.73
2018-01-05T13:26:17.542Z,95014.70
2018-01-05T13:31:14.345Z,95024.72
2018-01-05T13:33:40.209Z,95022.03
2018-01-05T13:36:06.074Z,95018.89
2018-01-05T13:38:31.924Z,95022.51
2018-01-05T13:40:58.867Z,95024.02
2018-01-05T13:43:26.771Z,95022.12
2018-01-05T13:45:53.318Z,95030.61
2018-01-05T13:48:19.207Z,95028.96
2018-01-05T13:50:48.528Z,95021.02
2018-01-05T13:53:14.393Z,95020.48
2018-01-05T13:55:44.338Z,95023.00
2018-01-05T13:58:10.242Z,95025.32
2018-01-05T14:00:37.606Z,95027.16
2018-01-05T14:03:03.458Z,95035.34
2018-01-05T14:05:35.952Z,95034.17
2018-01-05T14:08:01.797Z,95037.45
2018-01-05T14:10:27.624Z,95040.20
2018-01-05T14:12:53.500Z,95044.84
2018-01-05T14:15:19.353Z,95052.48
2018-01-05T14:17:45.244Z,95048.97
2018-01-05T14:20:11.102Z,95061.16
2018-01-05T14:22:38.399Z,95056.38
2018-01-05T14:25:04.262Z,95062.06
2018-01-05T14:27:32.934Z,95068.73
2018-01-05T14:29:58.820Z,95079.02
2018-01-05T14:32:28.302Z,95080.31
2018-01-05T14:34:54.312Z,95079.42
2018-01-05T14:37:23.481Z,95091.34
2018-01-05T14:39:49.362Z,95088.88
2018-01-05T14:42:18.491Z,95069.53
2018-01-05T14:44:44.308Z,95065.95
2018-01-05T14:47:10.142Z,95071.28
2018-01-05T14:49:36.036Z,95080.01
2018-01-05T14:52:02.006Z,95093.98
2018-01-05T14:54:29.675Z,95094.63
2018-01-05T14:56:55.556Z,95094.50
2018-01-05T14:59:24.564Z,95110.93
2018-01-05T15:01:50.426Z,95108.28
2018-01-05T15:04:19.906Z,95105.84
2018-01-05T15:06:45.738Z,95112.38
2018-01-05T15:09:13.116Z,95119.81
2018-01-05T15:11:45.034Z,95123.67
2018-01-05T15:14:10.904Z,95111.95
2018-01-05T15:16:36.776Z,95111.79
2018-01-05T15:19:02.637Z,95127.34
2018-01-05T15:21:28.586Z,95129.09
2018-01-05T15:23:54.564Z,95138.09
2018-01-05T15:26:20.399Z,95134.72
2018-01-05T15:28:46.272Z,95131.91
2018-01-05T15:31:15.605Z,95136.87
2018-01-05T15:33:41.474Z,95150.79
2018-01-05T15:36:08.811Z,95156.70
2018-01-05T15:38:34.706Z,95159.30
2018-01-05T15:41:03.509Z,95170.52
2018-01-05T15:43:29.374Z,95169.09
2018-01-05T15:45:58.808Z,95167.41
2018-01-05T15:48:24.606Z,95168.77
2018-01-05T15:50:53.483Z,95172.31
2018-01-05T15:53:20.404Z,95186.80
2018-01-05T15:55:49.402Z,95181.32
2018-01-05T15:58:15.315Z,95183.64
2018-01-05T16:00:41.206Z,95181.28
2018-01-05T16:03:07.097Z,95175.21
2018-01-05T16:05:32.935Z,95182.05
2018-01-05T16:07:59.478Z,95185.50
2018-01-05T16:10:25.342Z,95197.19
2018-01-05T16:12:53.987Z,95202.05
2018-01-05T16:15:19.853Z,95198.88
2018-01-05T16:20:16.509Z,95202.80
2018-01-05T16:22:44.291Z,95206.67
2018-01-05T16:25:10.147Z,95203.97
2018-01-05T16:27:39.180Z,95208.67
2018-01-05T16:30:05.036Z,95204.56
2018-01-05T16:32:34.400Z,95206.81
2018-01-05T16:35:24.841Z,95209.86
2018-01-05T16:37:50.740Z,95211.34
2018-01-05T16:40:16.691Z,95219.64
2018-01-05T16:42:42.527Z,95220.20
2018-01-05T16:45:08.403Z,95233.52
2018-01-05T16:47:34.226Z,95239.05
2018-01-05T16:50:00.126Z,95231.20
2018-01-05T16:52:25.982Z,95229.95
2018-01-05T16:54:51.872Z,95227.71
2018-01-05T16:57:17.814Z,95232.86
2018-01-05T16:59:43.622Z,95238.27
2018-01-05T17:02:09.499Z,95238.59
2018-01-05T17:04:35.382Z,95247.27
2018-01-05T17:07:01.214Z,95248.43
2018-01-05T17:09:27.082Z,95253.21
2018-01-05T17:11:52.918Z,95259.18
2018-01-05T17:14:18.740Z,95256.98
2018-01-05T17:16:44.581Z,95257.22
2018-01-05T17:19:10.421Z,95262.59
2018-01-05T17:21:36.269Z,95256.10
2018-01-05T17:24:02.099Z,95258.34
2018-01-05T17:26:27.966Z,95264.27
2018-01-05T17:28:53.872Z,95266.55
2018-01-05T17:31:19.709Z,95271.98
2018-01-05T17:33:45.552Z,95277.70
2018-01-05T17:36:14.164Z,95281.70
2018-01-05T17:38:40.048Z,95287.17
2018-01-05T17:43:36.636Z,95273.06
2018-01-05T17:46:04.465Z,95283.05
2018-01-05T17:48:30.334Z,95281.72
2018-01-05T17:50:56.146Z,95276.70
2018-01-05T17:53:23.067Z,95279.89
2018-01-05T17:55:49.009Z,95287.92
2018-01-05T17:58:16.073Z,95288.48
2018-01-05T18:00:52.969Z,95283.53
2018-01-05T18:03:18.823Z,95293.76
2018-01-05T18:05:44.656Z,95299.19
2018-01-05T18:08:10.551Z,95291.69
2018-01-05T18:10:36.399Z,95303.66
2018-01-05T18:13:02.275Z,95306.37
2018-01-05T18:15:28.127Z,95312.15
2018-01-05T18:17:54.691Z,95319.44
2018-01-05T18:20:20.577Z,95307.59
2018-01-05T18:23:00.732Z,95306.30
2018-01-05T18:25:26.575Z,95306.89
2018-01-05T18:27:52.416Z,95309.20
2018-01-05T18:30:18.253Z,95312.50
2018-01-05T18:32:44.106Z,95319.69
2018-01-05T18:35:09.950Z,95310.84
2018-01-05T18:37:35.776Z,95319.50
2018-01-05T18:40:01.634Z,95318.45
2018-01-05T18:42:27.487Z,95321.58
2018-01-05T18:44:53.463Z,95326.73
2018-01-05T18:47:19.346Z,95327.80
2018-01-05T18:49:45.221Z,95332.79
2018-01-05T18:52:11.104Z,95331.01
2018-01-05T18:54:40.447Z,95318.95
2018-01-05T18:57:06.244Z,95324.56
2018-01-05T18:59:35.428Z,95319.98
2018-01-05T19:02:01.298Z,95329.58
2018-01-05T19:04:27.175Z,95337.12
2018-01-05T19:06:53.161Z,95333.89
2018-01-05T19:09:19.052Z,95329.69
2018-01-05T19:11:46.153Z,95334.31
2018-01-05T19:14:11.999Z,95338.20
2018-01-05T19:16:40.919Z,95348.76
2018-01-05T19:19:07.054Z,95361.73
2018-01-05T19:21:36.896Z,95363.02
2018-01-05T19:24:02.786Z,95364.95
2018-01-05T19:26:30.384Z,95370.63
2018-01-05T19:28:57.101Z,95368.07
2018-01-05T19:31:26.752Z,95373.26
2018-01-05T19:33:52.593Z,95378.97
2018-01-05T19:36:20.475Z,95380.83
2018-01-05T19:38:46.402Z,95386.55
2018-01-05T19:41:12.307Z,95383.95
2018-01-05T19:43:38.223Z,95387.92
2018-01-05T19:46:04.099Z,95389.05
2018-01-05T19:48:31.542Z,95388.65
2018-01-05T19:50:57.451Z,95390.64
2018-01-05T19:53:27.441Z,95394.33
2018-01-05T19:55:53.374Z,95401.69
2018-01-05T19:58:20.609Z,95392.42
2018-01-05T20:00:46.525Z,95392.84
2018-01-05T20:03:15.513Z,95392.09
2018-01-05T20:05:41.377Z,95372.58
2018-01-05T20:08:10.740Z,95392.20
2018-01-05T20:10:36.718Z,95395.45
2018-01-05T20:13:06.592Z,95091.58
2018-01-05T20:15:32.482Z,95394.61
2018-01-05T20:17:58.395Z,95395.44
2018-01-05T20:20:24.261Z,95402.48
2018-01-05T20:22:50.190Z,95398.90
2018-01-05T20:25:16.853Z,95400.53
2018-01-05T20:27:42.681Z,95408.50
2018-01-05T20:30:24.360Z,95403.77
2018-01-05T20:32:50.232Z,95413.53
2018-01-05T20:35:16.147Z,95417.09
2018-01-05T20:37:41.996Z,95419.68
2018-01-05T20:40:07.902Z,95420.98
2018-01-05T20:42:33.770Z,95421.48
2018-01-05T20:44:59.644Z,95429.53
2018-01-05T20:47:25.510Z,95428.91
2018-01-05T20:49:51.377Z,95431.95
2018-01-05T20:52:17.987Z,95429.88
2018-01-05T20:54:43.859Z,95432.36
2018-01-05T20:57:09.708Z,95433.25
2018-01-05T20:59:35.571Z,95439.72
2018-01-05T21:02:02.735Z,95445.51
2018-01-05T21:04:28.602Z,95449.56
2018-01-05T21:06:58.040Z,95454.30
2018-01-05T21:09:23.906Z,95450.19
2018-01-05T21:11:52.914Z,95452.23
2018-01-05T21:14:18.839Z,95450.68
2018-01-05T21:16:45.991Z,95458.20
2018-01-05T21:19:11.851Z,95459.95
2018-01-05T21:24:08.698Z,95472.53
2018-01-05T21:26:35.840Z,95466.23
2018-01-05T21:29:01.712Z,95469.62
2018-01-05T21:31:27.572Z,95473.25
2018-01-05T21:33:53.424Z,95467.63
2018-01-05T21:36:32.638Z,95472.10
2018-01-05T21:38:58.520Z,95474.02
2018-01-05T21:41:24.467Z,95479.78
2018-01-05T21:43:50.386Z,95478.19
2018-01-05T21:46:16.263Z,95486.61
2018-01-05T21:48:42.177Z,95491.48
2018-01-05T21:53:48.923Z,95490.41
2018-01-05T21:56:14.774Z,95487.11
2018-01-05T21:58:40.601Z,95480.47
2018-01-05T22:01:06.428Z,95466.15
2018-01-05T22:03:32.290Z,95478.07
2018-01-05T22:05:58.154Z,95476.52
2018-01-05T22:08:23.985Z,95480.70
2018-01-05T22:10:49.824Z,95483.66
2018-01-05T22:13:15.677Z,95490.66
2018-01-05T22:15:42.813Z,95499.56
2018-01-05T22:18:08.640Z,95491.46
2018-01-05T22:20:38.020Z,95500.77
2018-01-05T22:23:03.838Z,95498.59
2018-01-05T22:25:33.387Z,95501.70
2018-01-05T22:27:59.213Z,95506.30
2018-01-05T22:30:28.478Z,95497.95
2018-01-05T22:32:54.364Z,95504.81
2018-01-05T22:35:21.730Z,95502.87
2018-01-05T22:37:47.700Z,95503.13
2018-01-05T22:40:16.700Z,95508.12
2018-01-05T22:42:42.843Z,95510.28
2018-01-05T22:45:08.948Z,95513.88
2018-01-05T22:47:34.786Z,95515.86
2018-01-05T22:50:00.653Z,95518.55
2018-01-05T22:52:28.329Z,95523.08
2018-01-05T22:54:54.149Z,95531.89
2018-01-05T22:57:23.488Z,95527.39
2018-01-05T22:59:49.279Z,95528.20
2018-01-05T23:02:18.772Z,95531.31
2018-01-05T23:04:44.613Z,95524.19
2018-01-05T23:07:12.090Z,95520.63
2018-01-05T23:09:37.970Z,95517.93
2018-01-05T23:12:06.928Z,95519.06
2018-01-05T23:14:32.752Z,95517.77
2018-01-05T23:17:01.404Z,95520.59
2018-01-05T23:19:27.260Z,95523.18
2018-01-05T23:21:53.144Z,95524.19
2018-01-05T23:24:19.012Z,95525.13
2018-01-05T23:26:44.856Z,95530.38
2018-01-05T23:29:14.028Z,95536.88
2018-01-05T23:31:39.835Z,95536.72
2018-01-05T23:34:09.492Z,95536.33
2018-01-05T23:36:35.342Z,95548.34
2018-01-05T23:39:04.523Z,95545.00
2018-01-05T23:41:30.558Z,95549.76
2018-01-05T23:43:58.357Z,95543.44
2018-01-05T23:46:24.186Z,95538.67
2018-01-05T23:48:53.977Z,95535.50
2018-01-05T23:51:19.816Z,95540.27
2018-01-05T23:53:47.014Z,95534.53
2018-01-05T23:56:12.852Z,95541.87
2018-01-05T23:58:38.710Z,95551.43
